Terminal Aerodrome Forecast
Issued by NWS

Home | Current Version | Previous Version | Text Only | Print | Product List | Glossary On
Versions: 1 2 3 4 5 6 7 8 9 10 11 12 13
637
FTUS46 KPDT 270539
TAFYKM
TAF
KYKM 270539Z 2706/2806 28008KT P6SM SKC
     FM271600 35007KT P6SM SCT200
     FM272100 27010KT P6SM BKN070 BKN100
      TEMPO 2802/2806 -RA BKN070=

USA.gov is the U.S. government's official web portal to all federal, state and local government web resources and services.